Time;durP1;ratioP1;P1;durP2;ratioP2;P2;SDS_P1;SDS_P2;PMS_P1;PMS_P2;Temp;Humidity;BMP_temperature;BMP_pressure;BME280_temperature;BME280_humidity;BME280_pressure;Samples;Min_cycle;Max_cycle;Signal;HPM_P1;HPM_P2
2022/05/16 00:01:03;;;;;;;;;;;;;;;12.69;79.45;98526.10;1700699;82;20174;-84
2022/05/16 00:03:35;;;;;;;;;;;;;;;12.78;79.85;98531.95;1687376;82;25547;-83
2022/05/16 00:06:01;;;;;;;;;;;;;;;12.86;80.12;98524.33;1746629;80;21713;-87
2022/05/16 00:08:30;;;;;;;;;;;;;;;12.90;80.38;98535.42;1742534;81;26673;-87
2022/05/16 00:10:57;;;;;;;;;;;;;;;12.87;80.44;98533.05;1747137;80;24427;-86
2022/05/16 00:13:25;;;;;;;;;;;;;;;12.88;80.55;98532.06;1746410;81;20442;-84
2022/05/16 00:15:50;;;;;;;;;;;;;;;12.85;80.58;98530.53;1744065;81;24751;-84
2022/05/16 00:18:17;;;;;;;;;;;;;;;12.77;80.58;98528.12;1744061;81;22598;-84
2022/05/16 00:20:44;;;;;;;;;;;;;;;12.62;80.63;98530.14;1738065;80;21143;-84
2022/05/16 00:23:10;;;;;;;;;;;;;;;12.50;80.76;98527.13;1729876;81;24405;-83
2022/05/16 00:25:36;;;;;;;;;;;;;;;12.39;80.94;98531.05;1727772;81;20778;-83
2022/05/16 00:28:03;;;;;;;;;;;;;;;12.33;81.18;98539.41;1750138;81;20266;-83
2022/05/16 00:30:29;;;;;;;;;;;;;;;12.29;81.49;98533.53;1744231;80;21941;-83
2022/05/16 00:32:55;;;;;;;;;;;;;;;12.31;81.82;98538.67;1782254;80;26024;-83
2022/05/16 00:38:09;;;;;;;;;;;;;;;12.31;82.38;98537.37;1772741;79;20241;-83
2022/05/16 00:40:35;;;;;;;;;;;;;;;12.26;82.55;98547.38;1750076;81;24853;-84
2022/05/16 00:43:03;;;;;;;;;;;;;;;12.14;82.67;98548.65;1748676;81;22071;-84
2022/05/16 00:45:30;;;;;;;;;;;;;;;12.02;82.81;98544.77;1768695;80;26151;-84
2022/05/16 00:47:56;;;;;;;;;;;;;;;11.83;82.91;98549.71;1771127;80;24478;-84
2022/05/16 00:50:28;;;;;;;;;;;;;;;11.69;83.09;98548.05;1766034;80;20684;-84
2022/05/16 00:52:55;;;;;;;;;;;;;;;11.56;83.39;98550.73;1759904;80;24797;-84
2022/05/16 00:55:24;;;;;;;;;;;;;;;11.46;83.75;98552.78;1766886;80;22047;-87
2022/05/16 00:57:51;;;;;;;;;;;;;;;11.49;84.29;98551.27;1770319;80;26064;-87
2022/05/16 01:00:19;;;;;;;;;;;;;;;11.47;84.79;98550.06;1776964;80;24609;-87
2022/05/16 01:05:44;;;;;;;;;;;;;;;11.43;85.69;98552.55;1763930;80;24815;-84
2022/05/16 01:08:14;;;;;;;;;;;;;;;11.32;86.08;98545.92;1763679;80;21884;-84
2022/05/16 01:10:41;;;;;;;;;;;;;;;11.25;86.40;98542.89;1753522;80;26151;-84
2022/05/16 01:13:10;;;;;;;;;;;;;;;11.15;86.75;98535.33;1752359;80;24533;-84
2022/05/16 01:15:42;;;;;;;;;;;;;;;11.08;87.14;98526.22;1769009;80;20312;-84
2022/05/16 01:18:09;;;;;;;;;;;;;;;11.06;87.54;98539.08;1757240;80;25493;-84
2022/05/16 01:20:52;;;;;;;;;;;;;;;11.02;87.89;98536.31;1770983;80;21953;-83
2022/05/16 01:23:20;;;;;;;;;;;;;;;10.98;88.26;98529.13;1753467;80;26054;-84
2022/05/16 01:25:48;;;;;;;;;;;;;;;10.94;88.77;98529.45;1765002;80;24444;-83
2022/05/16 01:28:16;;;;;;;;;;;;;;;10.87;89.17;98525.10;1760167;80;20306;-83
2022/05/16 01:30:47;;;;;;;;;;;;;;;10.82;89.53;98528.52;1750490;80;24603;-83
2022/05/16 01:33:13;;;;;;;;;;;;;;;10.75;89.85;98524.17;1748127;80;21996;-87
2022/05/16 01:35:39;;;;;;;;;;;;;;;10.71;90.17;98521.41;1757058;80;26040;-87
2022/05/16 01:38:23;;;;;;;;;;;;;;;10.72;90.52;98532.25;1745931;80;20430;-87
2022/05/16 01:40:51;;;;;;;;;;;;;;;10.84;90.96;98527.95;1757395;80;20213;-83
2022/05/16 01:43:18;;;;;;;;;;;;;;;11.15;91.56;98527.47;1769076;79;25497;-83
2022/05/16 01:45:45;;;;;;;;;;;;;;;11.36;91.84;98529.50;1757522;80;21965;-83
2022/05/16 01:48:12;;;;;;;;;;;;;;;11.53;92.13;98524.73;1767804;78;26189;-83
2022/05/16 01:50:39;;;;;;;;;;;;;;;11.45;92.03;98531.02;1770168;80;24441;-83
2022/05/16 01:53:05;;;;;;;;;;;;;;;11.38;92.00;98529.77;1771551;79;20209;-82
2022/05/16 01:55:31;;;;;;;;;;;;;;;11.51;92.15;98527.92;1768348;79;24772;-82
2022/05/16 01:57:58;;;;;;;;;;;;;;;11.63;92.26;98531.45;1766379;79;20833;-82
2022/05/16 02:00:27;;;;;;;;;;;;;;;11.72;92.42;98541.28;1762090;80;26736;-82
2022/05/16 02:02:53;;;;;;;;;;;;;;;11.77;92.52;98534.42;1768340;79;25299;-82
2022/05/16 02:05:20;;;;;;;;;;;;;;;11.75;92.49;98537.15;1763841;80;20322;-84
2022/05/16 02:07:47;;;;;;;;;;;;;;;11.58;92.15;98542.74;1757135;79;24276;-83
2022/05/16 02:10:15;;;;;;;;;;;;;;;11.46;92.02;98544.92;1759113;80;22079;-83
2022/05/16 02:12:42;;;;;;;;;;;;;;;11.48;92.13;98549.12;1754778;80;25939;-86
2022/05/16 02:15:09;;;;;;;;;;;;;;;11.47;92.16;98546.61;1763308;78;24854;-85
2022/05/16 02:17:34;;;;;;;;;;;;;;;11.39;92.09;98545.02;1763466;80;20148;-85
2022/05/16 02:20:00;;;;;;;;;;;;;;;11.26;91.98;98551.13;1763120;80;20345;-82
2022/05/16 02:25:11;;;;;;;;;;;;;;;10.98;91.76;98555.78;1766371;80;26176;-82
2022/05/16 02:27:38;;;;;;;;;;;;;;;10.74;91.67;98559.17;1765885;80;24462;-83
2022/05/16 02:30:07;;;;;;;;;;;;;;;10.69;91.87;98555.19;1757137;80;20449;-83
2022/05/16 02:32:33;;;;;;;;;;;;;;;10.58;92.04;98559.84;1767108;80;24807;-83
2022/05/16 02:34:59;;;;;;;;;;;;;;;10.46;92.23;98557.58;1762559;78;20727;-81
2022/05/16 02:37:25;;;;;;;;;;;;;;;10.40;92.51;98555.84;1760216;80;26120;-82
2022/05/16 02:39:51;;;;;;;;;;;;;;;10.34;92.84;98561.02;1761801;79;20276;-82
2022/05/16 02:42:17;;;;;;;;;;;;;;;10.27;93.13;98565.44;1764749;80;20863;-82
2022/05/16 02:44:43;;;;;;;;;;;;;;;10.21;93.48;98561.45;1774731;80;20260;-82
2022/05/16 02:47:16;;;;;;;;;;;;;;;10.26;93.89;98562.45;1766463;79;21999;-81
2022/05/16 02:49:44;;;;;;;;;;;;;;;10.48;94.51;98567.45;1760272;80;26176;-82
2022/05/16 02:52:11;;;;;;;;;;;;;;;10.72;95.12;98564.12;1757577;80;24571;-82
2022/05/16 02:54:37;;;;;;;;;;;;;;;10.74;95.29;98559.63;1757926;79;20457;-82
2022/05/16 02:57:04;;;;;;;;;;;;;;;10.64;95.35;98565.94;1763256;80;24777;-82
2022/05/16 02:59:33;;;;;;;;;;;;;;;10.56;95.44;98564.33;1770265;79;21976;-82
2022/05/16 03:01:59;;;;;;;;;;;;;;;10.50;95.54;98562.13;1762554;80;26020;-82
2022/05/16 03:04:26;;;;;;;;;;;;;;;10.36;95.61;98565.69;1764159;79;24553;-82
2022/05/16 03:06:54;;;;;;;;;;;;;;;10.27;95.78;98566.28;1758203;80;20443;-82
2022/05/16 03:09:21;;;;;;;;;;;;;;;10.21;95.96;98562.75;1766316;79;24777;-82
2022/05/16 03:11:47;;;;;;;;;;;;;;;10.21;96.27;98559.30;1759075;80;22789;-86
2022/05/16 03:14:13;;;;;;;;;;;;;;;10.44;96.87;98556.84;1759354;80;20960;-86
2022/05/16 03:16:41;;;;;;;;;;;;;;;10.63;97.34;98559.53;1777718;80;20771;-83
2022/05/16 03:19:07;;;;;;;;;;;;;;;10.76;97.74;98554.64;1769059;80;20224;-82
2022/05/16 03:21:34;;;;;;;;;;;;;;;10.85;97.98;98552.72;1759626;80;24766;-83
2022/05/16 03:24:00;;;;;;;;;;;;;;;10.84;98.04;98558.05;1763015;80;22090;-84
2022/05/16 03:26:26;;;;;;;;;;;;;;;10.80;98.10;98560.02;1755854;80;25993;-84
2022/05/16 03:28:54;;;;;;;;;;;;;;;10.78;98.21;98561.09;1765693;80;20273;-83
2022/05/16 03:31:20;;;;;;;;;;;;;;;10.81;98.36;98565.63;1759569;79;20213;-83
2022/05/16 03:33:49;;;;;;;;;;;;;;;10.84;98.54;98564.13;1760615;80;20792;-83
2022/05/16 03:36:16;;;;;;;;;;;;;;;10.81;98.63;98567.41;1768300;80;22671;-83
2022/05/16 03:41:28;;;;;;;;;;;;;;;10.47;98.58;98561.04;1752412;80;25511;-83
2022/05/16 03:43:54;;;;;;;;;;;;;;;10.40;98.73;98559.30;1761852;79;20356;-83
2022/05/16 03:46:21;;;;;;;;;;;;;;;10.41;99.01;98559.67;1756370;80;20714;-83
2022/05/16 03:48:47;;;;;;;;;;;;;;;10.39;99.26;98560.70;1755679;79;22008;-83
2022/05/16 03:51:14;;;;;;;;;;;;;;;10.38;99.51;98563.78;1754740;80;26839;-83
2022/05/16 03:53:46;;;;;;;;;;;;;;;10.37;99.84;98565.19;1763392;79;24595;-83
2022/05/16 03:56:08;;;;;;;;;;;;;;;10.36;100.00;98566.16;1757322;79;20455;-83
2022/05/16 03:58:34;;;;;;;;;;;;;;;10.48;100.00;98561.37;1767936;80;20250;-83
2022/05/16 04:01:00;;;;;;;;;;;;;;;10.81;100.00;98562.17;1765617;79;20953;-83
2022/05/16 04:03:26;;;;;;;;;;;;;;;10.98;100.00;98563.16;1762784;79;21048;-83
2022/05/16 04:05:53;;;;;;;;;;;;;;;10.95;100.00;98560.77;1757339;80;25261;-83
2022/05/16 04:08:19;;;;;;;;;;;;;;;11.11;100.00;98558.76;1761985;80;20333;-84
2022/05/16 04:10:51;;;;;;;;;;;;;;;11.47;100.00;98559.70;1753997;80;20261;-84
2022/05/16 04:13:17;;;;;;;;;;;;;;;11.82;100.00;98555.91;1755468;80;21958;-83
2022/05/16 04:15:43;;;;;;;;;;;;;;;12.20;100.00;98558.33;1757142;80;25952;-83
2022/05/16 04:18:09;;;;;;;;;;;;;;;12.39;100.00;98550.73;1759315;80;20334;-83
2022/05/16 04:20:35;;;;;;;;;;;;;;;12.45;100.00;98555.52;1765276;80;20451;-82
2022/05/16 04:23:01;;;;;;;;;;;;;;;12.66;100.00;98555.67;1764861;80;21296;-84
2022/05/16 04:25:27;;;;;;;;;;;;;;;12.85;100.00;98558.58;1761903;80;20295;-84
2022/05/16 04:27:55;;;;;;;;;;;;;;;12.97;100.00;98553.22;1763706;80;26070;-83
2022/05/16 04:30:21;;;;;;;;;;;;;;;12.82;100.00;98552.27;1763346;79;24609;-83
2022/05/16 04:32:47;;;;;;;;;;;;;;;12.70;100.00;98554.52;1771878;79;20469;-83
2022/05/16 04:35:13;;;;;;;;;;;;;;;12.76;100.00;98559.30;1756907;80;20352;-83
2022/05/16 04:37:39;;;;;;;;;;;;;;;12.81;100.00;98563.25;1757972;80;20301;-83
2022/05/16 04:40:08;;;;;;;;;;;;;;;12.89;100.00;98566.58;1758098;80;26092;-83
2022/05/16 04:42:46;;;;;;;;;;;;;;;12.92;100.00;98565.88;1771136;80;25300;-83
2022/05/16 04:45:13;;;;;;;;;;;;;;;13.04;100.00;98565.89;1753093;80;20232;-83
2022/05/16 04:47:40;;;;;;;;;;;;;;;13.19;100.00;98562.09;1762586;80;24844;-83
2022/05/16 04:50:06;;;;;;;;;;;;;;;13.27;100.00;98564.94;1758730;80;22110;-86
2022/05/16 04:52:38;;;;;;;;;;;;;;;13.29;100.00;98569.61;1756204;80;26842;-87
2022/05/16 04:55:04;;;;;;;;;;;;;;;13.25;100.00;98573.44;1766507;80;24499;-83
2022/05/16 04:57:31;;;;;;;;;;;;;;;13.21;100.00;98572.82;1766247;78;20536;-83
2022/05/16 04:59:57;;;;;;;;;;;;;;;13.16;100.00;98568.41;1767278;80;24791;-82
2022/05/16 05:02:23;;;;;;;;;;;;;;;13.14;100.00;98570.34;1768908;80;20427;-86
2022/05/16 05:04:49;;;;;;;;;;;;;;;13.23;100.00;98565.66;1761821;80;26152;-86
2022/05/16 05:07:15;;;;;;;;;;;;;;;13.28;100.00;98567.45;1770288;80;20293;-82
2022/05/16 05:15:14;;;;;;;;;;;;;;;13.83;100.00;98559.10;1757593;80;22191;-82
2022/05/16 05:17:41;;;;;;;;;;;;;;;13.91;100.00;98558.49;1762522;80;26949;-83
2022/05/16 05:20:12;;;;;;;;;;;;;;;14.01;100.00;98565.51;1774850;78;25167;-86
2022/05/16 05:22:35;;;;;;;;;;;;;;;14.27;100.00;98564.67;1758856;80;20223;-82
2022/05/16 05:25:01;;;;;;;;;;;;;;;14.50;100.00;98567.59;1763303;80;20232;-83
2022/05/16 05:27:27;;;;;;;;;;;;;;;14.63;100.00;98564.73;1769111;80;22037;-85
2022/05/16 05:29:54;;;;;;;;;;;;;;;14.75;100.00;98565.02;1766136;80;25936;-84
2022/05/16 05:32:20;;;;;;;;;;;;;;;14.90;100.00;98566.83;1766901;80;24504;-83
2022/05/16 05:34:46;;;;;;;;;;;;;;;15.01;100.00;98569.38;1757779;79;20450;-87
2022/05/16 05:37:12;;;;;;;;;;;;;;;15.11;100.00;98568.94;1725008;82;20252;-82
2022/05/16 05:39:38;;;;;;;;;;;;;;;15.05;100.00;98570.81;1714443;81;20363;-82
2022/05/16 05:42:04;;;;;;;;;;;;;;;14.99;100.00;98566.06;1716655;82;26847;-83
2022/05/16 05:44:31;;;;;;;;;;;;;;;14.96;100.00;98568.94;1706330;82;24630;-82
2022/05/16 05:46:59;;;;;;;;;;;;;;;14.84;100.00;98555.48;1712055;82;20209;-83
2022/05/16 05:49:25;;;;;;;;;;;;;;;14.92;100.00;98567.06;1706690;81;24799;-83
2022/05/16 05:51:51;;;;;;;;;;;;;;;15.01;100.00;98565.42;1714984;82;22271;-81
2022/05/16 05:54:19;;;;;;;;;;;;;;;14.96;100.00;98563.67;1715144;82;26059;-86
2022/05/16 05:56:45;;;;;;;;;;;;;;;14.91;100.00;98564.55;1716483;81;24628;-83
2022/05/16 05:59:11;;;;;;;;;;;;;;;14.96;100.00;98559.72;1729342;82;20310;-83
2022/05/16 06:01:37;;;;;;;;;;;;;;;15.00;99.99;98565.10;1732974;82;24815;-87
2022/05/16 06:04:03;;;;;;;;;;;;;;;14.98;99.86;98566.55;1756008;80;21962;-83
2022/05/16 06:06:29;;;;;;;;;;;;;;;14.92;99.71;98567.55;1760713;80;26001;-83
2022/05/16 06:08:55;;;;;;;;;;;;;;;14.93;99.72;98563.95;1758261;80;20819;-83
2022/05/16 06:11:28;;;;;;;;;;;;;;;15.04;99.97;98566.50;1754132;80;20593;-84
2022/05/16 06:13:51;;;;;;;;;;;;;;;15.09;100.00;98569.57;1765271;80;24955;-83
2022/05/16 06:16:17;;;;;;;;;;;;;;;15.16;100.00;98567.25;1750435;80;20915;-87
2022/05/16 06:18:43;;;;;;;;;;;;;;;15.32;100.00;98564.95;1758440;80;20988;-82
2022/05/16 06:21:09;;;;;;;;;;;;;;;15.50;100.00;98569.92;1757382;80;24517;-84
2022/05/16 06:23:36;;;;;;;;;;;;;;;15.61;100.00;98571.64;1755374;80;20318;-83
2022/05/16 06:26:02;;;;;;;;;;;;;;;15.64;100.00;98571.39;1756807;80;24729;-83
2022/05/16 06:28:29;;;;;;;;;;;;;;;15.70;100.00;98568.22;1728639;82;20834;-84
2022/05/16 06:30:56;;;;;;;;;;;;;;;15.66;100.00;98570.75;1691582;83;26071;-82
2022/05/16 06:33:25;;;;;;;;;;;;;;;15.62;100.00;98566.72;1757819;80;24570;-87
2022/05/16 06:35:50;;;;;;;;;;;;;;;15.64;100.00;98568.27;1757084;80;20195;-83
2022/05/16 06:38:19;;;;;;;;;;;;;;;15.66;100.00;98566.79;1757825;80;20185;-83
2022/05/16 06:40:47;;;;;;;;;;;;;;;15.75;100.00;98572.11;1739675;81;22059;-84
2022/05/16 06:43:15;;;;;;;;;;;;;;;15.84;99.97;98570.45;1732109;81;26658;-83
2022/05/16 06:45:41;;;;;;;;;;;;;;;15.96;100.00;98569.84;1732773;80;24410;-84
2022/05/16 06:48:08;;;;;;;;;;;;;;;16.05;99.82;98575.60;1740801;81;20214;-87
2022/05/16 06:50:35;;;;;;;;;;;;;;;16.13;99.78;98570.00;1735638;80;24817;-83
2022/05/16 06:53:03;;;;;;;;;;;;;;;16.18;99.60;98574.38;1737825;80;22082;-84
2022/05/16 06:55:29;;;;;;;;;;;;;;;16.18;99.23;98578.82;1744380;80;25969;-82
2022/05/16 06:57:55;;;;;;;;;;;;;;;16.22;98.99;98579.72;1729703;80;24712;-87
2022/05/16 07:00:22;;;;;;;;;;;;;;;16.25;98.77;98584.74;1736091;81;20636;-85
2022/05/16 07:02:49;;;;;;;;;;;;;;;16.35;98.67;98587.86;1736441;80;24767;-82
2022/05/16 07:05:15;;;;;;;;;;;;;;;16.38;98.10;98591.05;1732929;81;22046;-82
2022/05/16 07:07:41;;;;;;;;;;;;;;;16.48;97.53;98591.87;1735636;81;25938;-82
2022/05/16 07:10:07;;;;;;;;;;;;;;;16.59;97.22;98594.88;1737576;81;24420;-84
2022/05/16 07:12:33;;;;;;;;;;;;;;;16.59;96.13;98586.47;1736531;80;20627;-83
2022/05/16 07:14:59;;;;;;;;;;;;;;;16.60;94.99;98588.63;1735453;81;24727;-86
2022/05/16 07:17:25;;;;;;;;;;;;;;;16.69;94.58;98582.52;1735155;81;21975;-83
2022/05/16 07:19:51;;;;;;;;;;;;;;;16.73;94.05;98583.41;1735611;80;26044;-84
2022/05/16 07:22:22;;;;;;;;;;;;;;;16.78;93.63;98581.65;1726152;80;20249;-85
2022/05/16 07:24:53;;;;;;;;;;;;;;;16.84;93.21;98586.86;1735177;80;20257;-82
2022/05/16 07:30:07;;;;;;;;;;;;;;;16.95;91.97;98581.41;1738733;80;22758;-82
2022/05/16 07:32:41;;;;;;;;;;;;;;;16.95;90.53;98581.41;1737586;81;25987;-83
2022/05/16 07:35:06;;;;;;;;;;;;;;;16.96;89.68;98586.55;1730887;81;24531;-82
2022/05/16 07:37:31;;;;;;;;;;;;;;;17.01;88.77;98589.60;1745094;81;20222;-82
2022/05/16 07:39:58;;;;;;;;;;;;;;;17.10;88.17;98585.25;1732707;80;20212;-85
2022/05/16 07:42:25;;;;;;;;;;;;;;;17.14;86.40;98583.48;1742166;81;22112;-83
2022/05/16 07:44:50;;;;;;;;;;;;;;;17.25;85.48;98577.66;1738872;81;26052;-85
2022/05/16 07:47:17;;;;;;;;;;;;;;;17.37;84.42;98577.83;1738868;81;20877;-82
2022/05/16 07:49:49;;;;;;;;;;;;;;;17.47;83.55;98571.51;1734348;81;20211;-87
2022/05/16 07:52:15;;;;;;;;;;;;;;;17.56;82.13;98573.78;1735740;81;24819;-82
2022/05/16 07:54:44;;;;;;;;;;;;;;;17.64;80.73;98575.22;1739516;81;20218;-85
2022/05/16 07:57:10;;;;;;;;;;;;;;;17.76;79.74;98568.74;1730966;81;26198;-83
2022/05/16 07:59:36;;;;;;;;;;;;;;;17.82;78.29;98566.83;1738214;81;20292;-88
2022/05/16 08:02:02;;;;;;;;;;;;;;;17.94;77.40;98562.15;1743533;81;21487;-87
2022/05/16 08:04:28;;;;;;;;;;;;;;;17.99;76.16;98561.20;1741126;81;24846;-82
2022/05/16 08:06:54;;;;;;;;;;;;;;;18.07;74.80;98558.62;1735858;81;20811;-83
2022/05/16 08:12:07;;;;;;;;;;;;;;;18.23;72.46;98565.88;1741753;81;25825;-87
2022/05/16 08:14:35;;;;;;;;;;;;;;;18.31;71.44;98563.32;1739732;81;21026;-84
2022/05/16 08:17:01;;;;;;;;;;;;;;;18.38;70.83;98555.91;1732502;81;24746;-88
2022/05/16 08:19:29;;;;;;;;;;;;;;;18.51;70.60;98559.50;1737370;81;20226;-88
2022/05/16 08:21:55;;;;;;;;;;;;;;;18.60;69.69;98569.20;1742909;81;26833;-85
2022/05/16 08:24:21;;;;;;;;;;;;;;;18.65;68.68;98567.44;1741219;81;24560;-85
2022/05/16 08:26:49;;;;;;;;;;;;;;;18.77;68.49;98565.68;1733851;81;20718;-83
2022/05/16 08:29:15;;;;;;;;;;;;;;;18.94;68.37;98565.30;1728922;81;24736;-83
2022/05/16 08:31:41;;;;;;;;;;;;;;;19.01;67.88;98568.16;1728900;81;20458;-82
2022/05/16 08:34:07;;;;;;;;;;;;;;;19.10;67.50;98564.55;1742510;81;26178;-82
2022/05/16 08:42:08;;;;;;;;;;;;;;;19.38;65.97;98562.05;1741733;81;25570;-82
2022/05/16 08:44:38;;;;;;;;;;;;;;;19.40;64.91;98557.91;1738097;81;21958;-82
2022/05/16 08:47:06;;;;;;;;;;;;;;;19.43;63.96;98557.09;1740864;81;26583;-83
2022/05/16 08:49:34;;;;;;;;;;;;;;;19.49;63.08;98559.63;1738369;81;24800;-83
2022/05/16 08:52:17;;;;;;;;;;;;;;;19.49;62.10;98550.34;1740719;81;20230;-82
2022/05/16 08:54:51;;;;;;;;;;;;;;;19.51;61.20;98549.20;1737050;81;24830;-85
2022/05/16 08:57:19;;;;;;;;;;;;;;;19.54;60.35;98548.03;1739771;81;22164;-88
2022/05/16 08:59:47;;;;;;;;;;;;;;;19.61;59.81;98554.38;1742670;81;26153;-85
2022/05/16 09:02:15;;;;;;;;;;;;;;;19.77;60.12;98550.93;1741643;80;24533;-82
2022/05/16 09:04:52;;;;;;;;;;;;;;;19.91;59.73;98548.98;1739150;81;20144;-85
2022/05/16 09:07:22;;;;;;;;;;;;;;;19.97;59.07;98547.81;1740355;81;25543;-85
2022/05/16 09:09:55;;;;;;;;;;;;;;;20.08;58.70;98555.97;1744341;81;22063;-88
2022/05/16 09:12:26;;;;;;;;;;;;;;;20.05;57.64;98554.48;1740912;81;26295;-82
2022/05/16 09:14:54;;;;;;;;;;;;;;;20.09;57.09;98550.98;1740045;80;24531;-82
2022/05/16 09:17:38;;;;;;;;;;;;;;;20.22;57.03;98550.52;1741164;81;20229;-82
2022/05/16 09:20:23;;;;;;;;;;;;;;;20.23;55.82;98554.84;1739961;81;24857;-85
2022/05/16 09:22:54;;;;;;;;;;;;;;;20.17;54.59;98548.36;1739776;81;22077;-85
2022/05/16 09:25:22;;;;;;;;;;;;;;;20.17;53.73;98551.02;1740701;81;26122;-88
2022/05/16 09:30:34;;;;;;;;;;;;;;;20.29;53.20;98551.00;1739092;80;20517;-84
2022/05/16 09:33:01;;;;;;;;;;;;;;;20.40;52.91;98540.59;1739584;81;20283;-83
2022/05/16 09:35:38;;;;;;;;;;;;;;;20.45;52.47;98547.57;1742329;81;22739;-82
2022/05/16 09:38:05;;;;;;;;;;;;;;;20.41;51.50;98547.55;1740068;81;26071;-83
2022/05/16 09:40:37;;;;;;;;;;;;;;;20.41;51.12;98548.38;1758233;80;24433;-83
2022/05/16 09:43:07;;;;;;;;;;;;;;;20.42;50.68;98544.73;1765693;80;20579;-83
2022/05/16 09:45:41;;;;;;;;;;;;;;;20.52;50.71;98541.89;1757896;80;24762;-83
2022/05/16 09:48:25;;;;;;;;;;;;;;;20.75;51.03;98546.03;1761983;80;21971;-84
2022/05/16 09:51:02;;;;;;;;;;;;;;;20.86;50.97;98542.52;1763727;80;26586;-83
2022/05/16 09:53:29;;;;;;;;;;;;;;;20.84;49.94;98549.83;1763498;80;25207;-84
2022/05/16 09:55:57;;;;;;;;;;;;;;;20.88;49.64;98541.87;1757782;80;20497;-85
2022/05/16 09:58:38;;;;;;;;;;;;;;;20.87;49.07;98540.70;1758438;80;26033;-85
2022/05/16 10:01:06;;;;;;;;;;;;;;;20.90;48.90;98541.67;1765407;80;22177;-84
2022/05/16 10:03:38;;;;;;;;;;;;;;;20.93;48.35;98547.17;1765976;80;26033;-84
2022/05/16 10:06:08;;;;;;;;;;;;;;;20.94;47.93;98539.53;1764324;80;24806;-84
2022/05/16 10:08:35;;;;;;;;;;;;;;;21.06;48.03;98538.97;1765748;80;20196;-85
2022/05/16 10:11:04;;;;;;;;;;;;;;;21.12;47.76;98536.13;1762205;80;24806;-84
2022/05/16 10:13:31;;;;;;;;;;;;;;;21.22;47.68;98538.16;1759884;80;22280;-84
2022/05/16 10:15:58;;;;;;;;;;;;;;;21.37;47.60;98536.42;1763381;80;26117;-84
2022/05/16 10:18:26;;;;;;;;;;;;;;;21.49;47.63;98527.55;1759934;80;24705;-87
2022/05/16 10:20:58;;;;;;;;;;;;;;;21.70;47.63;98534.44;1763105;80;20246;-85
2022/05/16 10:23:26;;;;;;;;;;;;;;;21.83;47.33;98524.02;1763379;80;24803;-83
2022/05/16 10:25:56;;;;;;;;;;;;;;;21.93;47.24;98523.28;1752547;80;20206;-83
2022/05/16 10:28:40;;;;;;;;;;;;;;;22.08;47.24;98524.73;1756549;80;25998;-83
2022/05/16 10:33:54;;;;;;;;;;;;;;;22.24;46.92;98525.94;1758384;80;20324;-84
2022/05/16 10:36:27;;;;;;;;;;;;;;;22.27;46.51;98529.56;1765159;80;24769;-88
2022/05/16 10:39:15;;;;;;;;;;;;;;;22.26;46.21;98529.73;1767166;80;22163;-87
2022/05/16 10:41:53;;;;;;;;;;;;;;;22.31;46.12;98529.53;1724347;82;27672;-83
2022/05/16 10:44:29;;;;;;;;;;;;;;;22.38;45.93;98529.15;1728728;82;25386;-84
2022/05/16 10:47:00;;;;;;;;;;;;;;;22.20;44.99;98527.31;1731099;82;20309;-83
2022/05/16 10:49:28;;;;;;;;;;;;;;;22.04;44.44;98526.91;1730643;82;24737;-83
2022/05/16 10:51:59;;;;;;;;;;;;;;;21.96;44.13;98522.97;1732599;82;22174;-83
2022/05/16 10:54:26;;;;;;;;;;;;;;;21.95;43.94;98521.81;1733588;82;26034;-83
2022/05/16 10:57:00;;;;;;;;;;;;;;;21.93;43.80;98523.81;1729911;82;24641;-83
2022/05/16 10:59:31;;;;;;;;;;;;;;;21.97;43.86;98521.14;1728587;82;20216;-84
2022/05/16 11:01:59;;;;;;;;;;;;;;;22.03;43.64;98523.11;1729226;82;24852;-84
2022/05/16 11:04:29;;;;;;;;;;;;;;;22.05;43.51;98523.23;1729275;82;21987;-84
2022/05/16 11:06:57;;;;;;;;;;;;;;;21.98;42.86;98514.28;1728280;82;26084;-87
2022/05/16 11:09:31;;;;;;;;;;;;;;;21.87;42.36;98511.19;1727542;80;24419;-84
2022/05/16 11:12:05;;;;;;;;;;;;;;;21.85;42.12;98510.02;1725788;82;20235;-84
2022/05/16 11:14:51;;;;;;;;;;;;;;;21.78;41.49;98512.23;1728274;80;24838;-84
2022/05/16 11:17:31;;;;;;;;;;;;;;;21.78;41.22;98506.90;1730833;82;22109;-83
2022/05/16 11:20:02;;;;;;;;;;;;;;;21.79;40.97;98504.56;1731649;82;25953;-83
2022/05/16 11:22:30;;;;;;;;;;;;;;;21.90;41.09;98502.33;1733263;82;24244;-84
2022/05/16 11:25:04;;;;;;;;;;;;;;;22.10;41.21;98500.88;1729639;82;20240;-84
2022/05/16 11:27:35;;;;;;;;;;;;;;;22.31;41.35;98500.73;1736824;82;24768;-84
2022/05/16 11:30:09;;;;;;;;;;;;;;;22.43;41.31;98499.27;1735307;82;22734;-87
2022/05/16 11:32:46;;;;;;;;;;;;;;;22.63;41.36;98495.59;1730954;82;26872;-88
2022/05/16 11:35:17;;;;;;;;;;;;;;;22.70;41.22;98493.34;1728410;80;26204;-88
2022/05/16 11:37:51;;;;;;;;;;;;;;;22.58;40.58;98484.14;1726890;82;20320;-88
2022/05/16 11:40:25;;;;;;;;;;;;;;;22.46;40.30;98487.75;1739029;81;24812;-88
2022/05/16 11:43:01;;;;;;;;;;;;;;;22.44;40.18;98489.76;1734893;81;21998;-84
2022/05/16 11:45:37;;;;;;;;;;;;;;;22.46;40.17;98483.75;1738305;81;26043;-84
2022/05/16 11:48:04;;;;;;;;;;;;;;;22.57;40.20;98483.81;1732832;81;24546;-84
2022/05/16 11:50:41;;;;;;;;;;;;;;;22.73;40.35;98482.34;1727768;81;20245;-82
2022/05/16 11:53:15;;;;;;;;;;;;;;;22.78;39.99;98476.45;1737867;81;24847;-84
2022/05/16 12:01:32;;;;;;;;;;;;;;;22.65;39.46;98465.54;1740850;80;24393;-83
2022/05/16 12:04:15;;;;;;;;;;;;;;;22.83;39.71;98458.88;1737787;80;20272;-83
2022/05/16 12:06:48;;;;;;;;;;;;;;;23.03;39.82;98459.64;1738875;81;24802;-83
2022/05/16 12:09:19;;;;;;;;;;;;;;;23.12;39.76;98458.55;1739594;81;23311;-83
2022/05/16 12:11:51;;;;;;;;;;;;;;;23.16;39.56;98459.83;1740351;81;26592;-84
2022/05/16 12:14:29;;;;;;;;;;;;;;;23.06;39.08;98460.12;1737819;81;24415;-84
2022/05/16 12:16:59;;;;;;;;;;;;;;;22.97;38.75;98461.71;1737821;81;20310;-84
2022/05/16 12:19:30;;;;;;;;;;;;;;;22.87;38.42;98461.49;1736056;81;24839;-84
2022/05/16 12:21:58;;;;;;;;;;;;;;;22.82;38.18;98457.22;1744189;80;23221;-84
2022/05/16 12:24:27;;;;;;;;;;;;;;;22.78;37.81;98459.94;1744351;81;25942;-85
2022/05/16 12:27:01;;;;;;;;;;;;;;;22.79;37.84;98450.93;1735134;81;24530;-87
2022/05/16 12:29:32;;;;;;;;;;;;;;;22.98;38.02;98452.70;1739017;80;20221;-85
2022/05/16 12:31:59;;;;;;;;;;;;;;;23.14;38.08;98457.33;1738859;80;25634;-85
2022/05/16 12:34:33;;;;;;;;;;;;;;;23.17;37.84;98447.63;1736931;81;22382;-88
2022/05/16 12:37:00;;;;;;;;;;;;;;;23.30;37.95;98443.77;1730365;81;25970;-84
2022/05/16 12:39:28;;;;;;;;;;;;;;;23.40;37.87;98431.98;1733299;80;24514;-88
2022/05/16 12:42:13;;;;;;;;;;;;;;;23.42;37.71;98433.43;1733514;82;20301;-83
2022/05/16 12:44:47;;;;;;;;;;;;;;;23.40;37.52;98420.79;1736532;80;24854;-84
2022/05/16 12:47:32;;;;;;;;;;;;;;;23.38;37.42;98425.48;1738199;82;23228;-85
2022/05/16 12:50:06;;;;;;;;;;;;;;;23.40;37.26;98419.45;1737315;82;26057;-87
2022/05/16 12:52:41;;;;;;;;;;;;;;;23.31;36.90;98417.39;1738046;82;24423;-88
2022/05/16 12:55:12;;;;;;;;;;;;;;;23.49;37.02;98429.03;1741341;82;20240;-84
2022/05/16 12:57:42;;;;;;;;;;;;;;;23.29;36.39;98426.08;1739983;81;24786;-84
2022/05/16 13:00:13;;;;;;;;;;;;;;;23.18;36.25;98428.44;1740692;82;22074;-84
2022/05/16 13:02:58;;;;;;;;;;;;;;;23.08;35.92;98419.36;1738617;82;26283;-88
2022/05/16 13:05:26;;;;;;;;;;;;;;;23.07;35.88;98418.23;1741494;81;24206;-84
2022/05/16 13:08:05;;;;;;;;;;;;;;;23.12;36.06;98422.51;1741467;80;20202;-83
2022/05/16 13:10:43;;;;;;;;;;;;;;;23.14;36.02;98416.45;1734774;82;24762;-83
2022/05/16 13:13:16;;;;;;;;;;;;;;;23.17;35.93;98408.92;1737645;82;22550;-88
2022/05/16 13:15:53;;;;;;;;;;;;;;;23.09;35.59;98406.34;1740807;82;26016;-88
2022/05/16 13:18:27;;;;;;;;;;;;;;;23.07;35.63;98403.55;1742088;81;24425;-85
2022/05/16 13:20:55;;;;;;;;;;;;;;;23.08;35.62;98398.00;1743163;80;20486;-87
2022/05/16 13:23:21;;;;;;;;;;;;;;;23.08;35.39;98398.51;1739203;82;25321;-85
2022/05/16 13:31:44;;;;;;;;;;;;;;;23.24;35.34;98392.95;1737751;82;24500;-84
2022/05/16 13:33:53;;;;;;;;;;;;;;;23.22;35.32;98380.31;1731653;82;20291;-85
2022/05/16 13:36:20;;;;;;;;;;;;;;;23.23;35.22;98378.80;1739109;82;24692;-84
2022/05/16 13:38:54;;;;;;;;;;;;;;;23.64;35.52;98385.70;1738662;82;22754;-84